createdAt,value
2019-03-01T00:02:14.997Z,26.80
2019-03-01T00:05:24.078Z,26.80
2019-03-01T00:08:17.037Z,26.80
2019-03-01T00:11:13.124Z,26.80
2019-03-01T00:14:11.789Z,26.80
2019-03-01T00:17:25.509Z,26.70
2019-03-01T00:20:35.842Z,26.70
2019-03-01T00:23:52.453Z,26.80
2019-03-01T00:27:02.820Z,26.70
2019-03-01T00:30:28.326Z,26.70
2019-03-01T00:33:42.258Z,26.70
2019-03-01T00:36:42.810Z,26.70
2019-03-01T00:40:02.491Z,26.70
2019-03-01T00:43:12.032Z,26.70
2019-03-01T00:46:04.573Z,26.70
2019-03-01T00:48:57.092Z,26.70
2019-03-01T00:51:49.259Z,26.70
2019-03-01T00:54:41.663Z,26.70
2019-03-01T00:57:34.163Z,26.70
2019-03-01T01:00:29.139Z,26.70
2019-03-01T01:03:21.075Z,26.70
2019-03-01T01:06:13.312Z,26.70
2019-03-01T01:09:06.422Z,26.70
2019-03-01T01:11:59.306Z,26.70
2019-03-01T01:14:51.442Z,26.70
2019-03-01T01:17:43.593Z,26.70
2019-03-01T01:20:35.956Z,26.70
2019-03-01T01:23:28.079Z,26.70
2019-03-01T01:26:20.400Z,26.70
2019-03-01T01:29:12.744Z,26.70
2019-03-01T01:32:04.772Z,26.70
2019-03-01T01:34:56.796Z,26.70
2019-03-01T01:37:49.142Z,26.70
2019-03-01T01:40:41.174Z,26.70
2019-03-01T01:43:33.429Z,26.70
2019-03-01T01:46:25.844Z,26.70
2019-03-01T01:49:19.458Z,26.70
2019-03-01T01:52:11.430Z,26.60
2019-03-01T01:55:03.477Z,26.70
2019-03-01T01:57:55.908Z,26.60
2019-03-01T02:00:47.950Z,26.60
2019-03-01T02:03:40.197Z,26.60
2019-03-01T02:06:32.479Z,26.60
2019-03-01T02:09:26.653Z,26.60
2019-03-01T02:12:20.004Z,26.60
2019-03-01T02:15:13.837Z,26.60
2019-03-01T02:18:06.999Z,26.60
2019-03-01T02:20:59.724Z,26.60
2019-03-01T02:23:52.078Z,26.60
2019-03-01T02:26:44.243Z,26.60
2019-03-01T02:29:36.788Z,26.60
2019-03-01T02:32:34.436Z,26.60
2019-03-01T02:35:28.262Z,26.60
2019-03-01T02:38:26.715Z,26.60
2019-03-01T02:41:19.635Z,26.60
2019-03-01T02:44:12.120Z,26.60
2019-03-01T02:47:04.584Z,26.60
2019-03-01T02:49:56.973Z,26.50
2019-03-01T02:52:49.484Z,26.60
2019-03-01T02:55:41.540Z,26.50
2019-03-01T02:58:33.889Z,26.50
2019-03-01T03:01:26.005Z,26.50
2019-03-01T03:04:19.098Z,26.50
2019-03-01T03:07:27.199Z,26.50
2019-03-01T03:10:20.915Z,26.50
2019-03-01T03:13:13.509Z,26.50
2019-03-01T03:16:05.955Z,26.50
2019-03-01T03:18:58.491Z,26.50
2019-03-01T03:21:51.745Z,26.50
2019-03-01T03:24:44.178Z,26.50
2019-03-01T03:27:36.418Z,26.50
2019-03-01T03:30:28.399Z,26.50
2019-03-01T03:33:20.604Z,26.50
2019-03-01T03:36:13.073Z,26.50
2019-03-01T03:39:05.684Z,26.50
2019-03-01T03:41:59.075Z,26.50
2019-03-01T03:44:51.419Z,26.50
2019-03-01T03:47:45.262Z,26.50
2019-03-01T03:50:37.608Z,26.50
2019-03-01T03:53:29.921Z,26.50
2019-03-01T03:56:22.073Z,26.50
2019-03-01T03:59:14.313Z,26.50
2019-03-01T04:02:06.330Z,26.50
2019-03-01T04:04:58.674Z,26.50
2019-03-01T04:07:50.817Z,26.50
2019-03-01T04:10:53.890Z,26.40
2019-03-01T04:13:46.113Z,26.50
2019-03-01T04:16:38.477Z,26.50
2019-03-01T04:19:30.929Z,26.40
2019-03-01T04:22:23.459Z,26.40
2019-03-01T04:25:15.464Z,26.40
2019-03-01T04:28:07.749Z,26.40
2019-03-01T04:31:00.279Z,26.40
2019-03-01T04:33:55.622Z,26.40
2019-03-01T04:36:52.144Z,26.40
2019-03-01T04:39:48.303Z,26.40
2019-03-01T04:42:44.529Z,26.40
2019-03-01T04:45:40.940Z,26.40
2019-03-01T04:48:37.165Z,26.40
2019-03-01T04:51:39.938Z,26.40
2019-03-01T04:54:27.762Z,26.40
2019-03-01T04:57:20.519Z,26.40
2019-03-01T05:00:15.062Z,26.40
2019-03-01T05:03:07.542Z,26.40
2019-03-01T05:06:02.882Z,26.40
2019-03-01T05:08:56.975Z,26.40
2019-03-01T05:11:50.552Z,26.40
2019-03-01T05:14:42.541Z,26.40
2019-03-01T05:17:37.237Z,26.50
2019-03-01T05:20:31.173Z,26.40
2019-03-01T05:23:24.541Z,26.40
2019-03-01T05:26:19.877Z,26.30
2019-03-01T05:29:13.071Z,26.40
2019-03-01T05:32:10.163Z,26.50
2019-03-01T05:35:05.022Z,26.50
2019-03-01T05:38:03.099Z,26.50
2019-03-01T05:41:01.801Z,26.40
2019-03-01T05:44:02.267Z,26.50
2019-03-01T05:46:56.208Z,26.50
2019-03-01T05:49:54.687Z,26.60
2019-03-01T05:52:49.688Z,26.60
2019-03-01T05:55:46.535Z,26.50
2019-03-01T05:58:43.398Z,26.50
2019-03-01T06:01:45.009Z,26.60
2019-03-01T06:04:42.987Z,26.60
2019-03-01T06:07:57.751Z,26.70
2019-03-01T06:10:59.729Z,26.60
2019-03-01T06:14:20.601Z,26.50
2019-03-01T06:17:25.838Z,26.60
2019-03-01T06:20:42.379Z,26.60
2019-03-01T06:24:11.649Z,26.70
2019-03-01T06:27:26.682Z,26.70
2019-03-01T06:30:40.543Z,26.60
2019-03-01T06:33:45.217Z,26.60
2019-03-01T06:36:43.556Z,26.70
2019-03-01T06:40:00.141Z,26.70
2019-03-01T06:43:07.951Z,26.60
2019-03-01T06:46:11.606Z,26.50
2019-03-01T06:49:12.670Z,26.60
2019-03-01T06:52:05.995Z,26.60
2019-03-01T06:55:00.856Z,26.70
2019-03-01T06:57:54.717Z,26.60
2019-03-01T07:00:51.103Z,26.50
2019-03-01T07:03:44.910Z,26.50
2019-03-01T07:06:38.884Z,26.70
2019-03-01T07:09:42.559Z,26.70
2019-03-01T07:12:35.033Z,26.70
2019-03-01T07:15:29.083Z,26.70
2019-03-01T07:18:21.919Z,26.70
2019-03-01T07:21:15.046Z,26.70
2019-03-01T07:24:07.328Z,26.70
2019-03-01T07:27:00.315Z,26.70
2019-03-01T07:29:53.329Z,26.70
2019-03-01T07:32:45.990Z,26.70
2019-03-01T07:35:38.764Z,26.70
2019-03-01T07:38:31.643Z,26.60
2019-03-01T07:41:25.022Z,26.50
2019-03-01T07:44:18.163Z,26.50
2019-03-01T07:47:11.319Z,26.60
2019-03-01T07:50:04.527Z,26.60
2019-03-01T07:53:03.820Z,26.60
2019-03-01T07:55:57.305Z,26.70
2019-03-01T07:58:51.261Z,26.60
2019-03-01T08:01:46.632Z,26.60
2019-03-01T08:04:39.419Z,26.60
2019-03-01T08:10:42.490Z,26.50
2019-03-01T08:13:36.598Z,26.60
2019-03-01T08:16:28.889Z,26.60
2019-03-01T08:19:22.587Z,26.60
2019-03-01T08:22:16.410Z,26.70
2019-03-01T08:25:09.234Z,26.70
2019-03-01T08:28:02.027Z,26.70
2019-03-01T08:30:55.481Z,26.60
2019-03-01T08:33:48.430Z,26.50
2019-03-01T08:36:42.407Z,26.50
2019-03-01T08:39:36.617Z,26.50
2019-03-01T08:42:32.580Z,26.60
2019-03-01T08:45:23.320Z,26.60
2019-03-01T08:48:15.672Z,26.60
2019-03-01T08:51:08.086Z,26.60
2019-03-01T08:54:02.285Z,26.70
2019-03-01T08:56:54.986Z,26.50
2019-03-01T08:59:47.583Z,26.50
2019-03-01T09:02:40.213Z,26.50
2019-03-01T09:05:33.011Z,26.60
2019-03-01T09:08:26.502Z,26.60
2019-03-01T09:11:19.405Z,26.60
2019-03-01T09:14:12.217Z,26.60
2019-03-01T09:17:04.969Z,26.70
2019-03-01T09:20:00.224Z,26.70
2019-03-01T09:22:51.881Z,26.70
2019-03-01T09:25:46.078Z,26.60
2019-03-01T09:28:39.880Z,26.60
2019-03-01T09:31:37.388Z,26.60
2019-03-01T09:34:32.192Z,26.60
2019-03-01T09:37:25.985Z,26.60
2019-03-01T09:40:20.564Z,26.70
2019-03-01T09:43:24.570Z,26.70
2019-03-01T09:46:23.742Z,26.70
2019-03-01T09:49:21.349Z,26.70
2019-03-01T09:52:20.398Z,26.20
2019-03-01T09:55:16.443Z,26.70
2019-03-01T09:58:10.511Z,26.70
2019-03-01T10:01:07.977Z,26.60
2019-03-01T10:04:02.169Z,26.50
2019-03-01T10:07:02.735Z,26.50
2019-03-01T10:09:54.727Z,26.60
2019-03-01T10:12:47.175Z,26.70
2019-03-01T10:15:39.899Z,26.70
2019-03-01T10:18:32.978Z,26.70
2019-03-01T10:21:27.912Z,26.80
2019-03-01T10:24:22.418Z,26.80
2019-03-01T10:27:15.646Z,26.80
2019-03-01T10:30:08.932Z,26.80
2019-03-01T10:33:02.800Z,26.70
2019-03-01T10:35:55.881Z,26.70
2019-03-01T10:38:50.713Z,26.80
2019-03-01T10:41:43.460Z,26.80
2019-03-01T10:44:35.975Z,26.90
2019-03-01T10:47:29.231Z,26.90
2019-03-01T10:50:25.103Z,26.90
2019-03-01T10:53:18.896Z,27.00
2019-03-01T10:56:12.202Z,27.00
2019-03-01T10:59:06.180Z,26.90
2019-03-01T11:01:59.703Z,26.80
2019-03-01T11:04:52.201Z,26.80
2019-03-01T11:07:47.304Z,26.90
2019-03-01T11:10:42.685Z,26.90
2019-03-01T11:13:37.991Z,27.00
2019-03-01T11:16:32.239Z,27.00
2019-03-01T11:19:27.183Z,27.00
2019-03-01T11:22:25.027Z,27.00
2019-03-01T11:25:19.045Z,26.90
2019-03-01T11:28:17.019Z,26.80
2019-03-01T11:31:11.123Z,26.80
2019-03-01T11:34:11.593Z,26.80
2019-03-01T11:37:06.447Z,26.80
2019-03-01T11:40:01.567Z,26.90
2019-03-01T11:42:55.934Z,26.90
2019-03-01T11:45:48.688Z,26.80
2019-03-01T11:48:42.289Z,26.80
2019-03-01T11:51:35.451Z,26.80
2019-03-01T11:54:29.327Z,26.90
2019-03-01T11:57:22.455Z,26.90
2019-03-01T12:00:17.295Z,26.80
2019-03-01T12:03:15.395Z,26.80
2019-03-01T12:06:08.985Z,26.80
2019-03-01T12:09:02.923Z,26.80
2019-03-01T12:12:00.114Z,26.90
2019-03-01T12:14:51.794Z,26.90
2019-03-01T12:17:45.381Z,26.80
2019-03-01T12:20:57.764Z,26.80
2019-03-01T12:23:50.456Z,26.80
2019-03-01T12:26:42.801Z,26.90
2019-03-01T12:29:35.719Z,26.90
2019-03-01T12:32:28.668Z,26.90
2019-03-01T12:35:21.148Z,26.80
2019-03-01T12:38:13.444Z,26.80
2019-03-01T12:41:06.272Z,26.80
2019-03-01T12:43:59.048Z,26.90
2019-03-01T12:46:51.227Z,26.90
2019-03-01T12:49:43.517Z,26.90
2019-03-01T12:52:36.298Z,26.80
2019-03-01T12:55:29.102Z,26.80
2019-03-01T12:58:22.169Z,26.80
2019-03-01T13:01:14.447Z,26.90
2019-03-01T13:04:09.561Z,27.00
2019-03-01T13:07:02.885Z,27.00
2019-03-01T13:09:55.081Z,27.10
2019-03-01T13:12:47.847Z,27.10
2019-03-01T13:15:40.258Z,27.10
2019-03-01T13:18:32.765Z,27.10
2019-03-01T13:21:25.283Z,27.10
2019-03-01T13:24:17.649Z,27.10
2019-03-01T13:27:14.044Z,27.10
2019-03-01T13:30:05.025Z,27.10
2019-03-01T13:33:02.150Z,27.10
2019-03-01T13:35:52.904Z,27.10
2019-03-01T13:38:45.137Z,27.10
2019-03-01T13:41:38.011Z,27.20
2019-03-01T13:44:30.292Z,27.10
2019-03-01T13:47:22.550Z,27.10
2019-03-01T13:50:15.322Z,27.10
2019-03-01T13:53:07.733Z,27.20
2019-03-01T13:56:00.190Z,27.20
2019-03-01T13:58:54.596Z,27.10
2019-03-01T14:01:47.776Z,27.10
2019-03-01T14:04:40.358Z,27.10
2019-03-01T14:07:33.507Z,27.10
2019-03-01T14:10:25.894Z,27.10
2019-03-01T14:13:18.565Z,27.10
2019-03-01T14:16:10.727Z,27.20
2019-03-01T14:19:03.411Z,27.10
2019-03-01T14:21:55.979Z,27.10
2019-03-01T14:24:48.775Z,27.10
2019-03-01T14:27:41.355Z,27.10
2019-03-01T14:30:33.607Z,27.10
2019-03-01T14:33:26.273Z,27.10
2019-03-01T14:36:18.883Z,27.10
2019-03-01T14:39:17.938Z,27.10
2019-03-01T14:42:10.926Z,27.10
2019-03-01T14:45:06.622Z,27.10
2019-03-01T14:47:58.770Z,27.10
2019-03-01T14:50:51.723Z,27.10
2019-03-01T14:53:43.973Z,27.10
2019-03-01T14:56:38.028Z,27.10
2019-03-01T14:59:38.188Z,27.10
2019-03-01T15:02:40.834Z,27.10
2019-03-01T15:05:33.488Z,27.10
2019-03-01T15:08:25.705Z,27.10
2019-03-01T15:11:22.691Z,27.20
2019-03-01T15:14:15.639Z,27.10
2019-03-01T15:17:08.767Z,27.10
2019-03-01T15:20:01.522Z,27.10
2019-03-01T15:22:55.095Z,27.10
2019-03-01T15:25:48.723Z,27.10
2019-03-01T15:28:59.826Z,27.10
2019-03-01T15:31:55.042Z,27.10
2019-03-01T15:34:46.434Z,27.10
2019-03-01T15:37:38.827Z,27.10
2019-03-01T15:40:32.620Z,27.10
2019-03-01T15:43:26.465Z,27.10
2019-03-01T15:46:20.572Z,27.10
2019-03-01T15:49:15.146Z,27.10
2019-03-01T15:52:10.657Z,27.10
2019-03-01T15:55:03.087Z,27.10
2019-03-01T15:57:57.309Z,27.10
2019-03-01T16:00:49.669Z,27.10
2019-03-01T16:03:42.274Z,27.10
2019-03-01T16:06:34.885Z,27.10
2019-03-01T16:09:28.761Z,27.10
2019-03-01T16:12:21.566Z,27.10
2019-03-01T16:15:15.010Z,27.10
2019-03-01T16:18:07.411Z,27.10
2019-03-01T16:21:02.019Z,27.10
2019-03-01T16:23:55.915Z,27.10
2019-03-01T16:26:48.418Z,27.10
2019-03-01T16:29:42.095Z,27.10
2019-03-01T16:32:35.371Z,27.10
2019-03-01T16:35:27.887Z,27.10
2019-03-01T16:38:21.727Z,27.10
2019-03-01T16:41:14.046Z,27.10
2019-03-01T16:44:07.713Z,27.10
2019-03-01T16:47:03.452Z,27.10
2019-03-01T16:49:56.100Z,27.10
2019-03-01T16:52:49.260Z,27.10
2019-03-01T16:55:41.806Z,27.10
2019-03-01T16:58:34.506Z,27.10
2019-03-01T17:01:29.863Z,27.10
2019-03-01T17:04:21.181Z,27.00
2019-03-01T17:07:13.180Z,27.00
2019-03-01T17:10:05.632Z,27.00
2019-03-01T17:12:57.448Z,27.00
2019-03-01T17:15:49.929Z,27.00
2019-03-01T17:18:44.667Z,27.00
2019-03-01T17:21:37.559Z,27.00
2019-03-01T17:24:30.455Z,27.00
2019-03-01T17:27:22.843Z,27.00
2019-03-01T17:30:17.907Z,27.00
2019-03-01T17:33:12.817Z,27.00
2019-03-01T17:36:04.140Z,27.00
2019-03-01T17:38:56.710Z,27.00
2019-03-01T17:41:49.741Z,27.00
2019-03-01T17:44:44.594Z,27.00
2019-03-01T17:47:35.338Z,27.00
2019-03-01T17:50:27.830Z,27.00
2019-03-01T17:53:19.704Z,27.00
2019-03-01T17:56:12.146Z,27.00
2019-03-01T17:59:04.537Z,27.00
2019-03-01T18:01:56.825Z,27.00
2019-03-01T18:04:49.386Z,27.00
2019-03-01T18:07:41.727Z,27.00
2019-03-01T18:10:33.860Z,27.00
2019-03-01T18:13:26.403Z,27.00
2019-03-01T18:16:18.674Z,27.00
2019-03-01T18:19:11.118Z,27.00
2019-03-01T18:22:03.121Z,27.00
2019-03-01T18:24:56.468Z,27.00
2019-03-01T18:27:49.687Z,26.90
2019-03-01T18:30:43.135Z,26.90
2019-03-01T18:33:36.767Z,27.00
2019-03-01T18:36:31.469Z,26.90
2019-03-01T18:39:24.038Z,27.00
2019-03-01T18:42:16.150Z,26.90
2019-03-01T18:45:08.927Z,26.90
2019-03-01T18:48:01.270Z,26.90
2019-03-01T18:50:53.890Z,26.90
2019-03-01T18:53:46.214Z,26.90
2019-03-01T18:56:38.575Z,27.00
2019-03-01T18:59:31.234Z,26.90
2019-03-01T19:02:24.331Z,26.90
2019-03-01T19:05:17.830Z,26.90
2019-03-01T19:08:10.379Z,26.90
2019-03-01T19:11:02.900Z,26.90
2019-03-01T19:13:58.580Z,26.90
2019-03-01T19:16:49.898Z,26.90
2019-03-01T19:19:42.617Z,26.90
2019-03-01T19:22:35.498Z,26.90
2019-03-01T19:25:27.737Z,26.90
2019-03-01T19:28:20.301Z,26.90
2019-03-01T19:31:13.129Z,26.90
2019-03-01T19:34:05.644Z,26.90
2019-03-01T19:36:58.067Z,26.90
2019-03-01T19:39:50.566Z,26.90
2019-03-01T19:42:43.047Z,26.90
2019-03-01T19:45:37.612Z,26.90
2019-03-01T19:48:29.212Z,26.90
2019-03-01T19:51:21.538Z,26.90
2019-03-01T19:54:14.238Z,26.90
2019-03-01T19:57:06.721Z,26.90
2019-03-01T19:59:58.913Z,26.80
2019-03-01T20:02:51.586Z,26.80
2019-03-01T20:05:43.905Z,26.80
2019-03-01T20:08:36.498Z,26.80
2019-03-01T20:11:29.005Z,26.90
2019-03-01T20:14:21.379Z,26.80
2019-03-01T20:17:14.757Z,26.80
2019-03-01T20:20:07.708Z,26.80
2019-03-01T20:22:59.797Z,26.80
2019-03-01T20:25:52.230Z,26.80
2019-03-01T20:28:47.712Z,26.80
2019-03-01T20:31:40.483Z,26.80
2019-03-01T20:34:34.880Z,26.80
2019-03-01T20:37:27.816Z,26.80
2019-03-01T20:40:22.783Z,26.80
2019-03-01T20:43:15.246Z,26.80
2019-03-01T20:46:08.062Z,26.80
2019-03-01T20:49:00.649Z,26.80
2019-03-01T20:51:54.255Z,26.80
2019-03-01T20:54:46.324Z,26.80
2019-03-01T20:57:38.563Z,26.80
2019-03-01T21:00:30.876Z,26.80
2019-03-01T21:03:24.945Z,26.80
2019-03-01T21:06:16.852Z,26.80
2019-03-01T21:09:09.399Z,26.80
2019-03-01T21:12:01.976Z,26.70
2019-03-01T21:14:55.357Z,26.70
2019-03-01T21:17:47.994Z,26.80
2019-03-01T21:20:40.023Z,26.70
2019-03-01T21:23:32.538Z,26.80
2019-03-01T21:26:24.901Z,26.80
2019-03-01T21:29:17.457Z,26.70
2019-03-01T21:32:11.725Z,26.70
2019-03-01T21:35:03.441Z,26.80
2019-03-01T21:37:56.065Z,26.70
2019-03-01T21:40:49.176Z,26.70
2019-03-01T21:43:41.576Z,26.70
2019-03-01T21:46:34.039Z,26.70
2019-03-01T21:49:27.115Z,26.70
2019-03-01T21:52:19.017Z,26.70
2019-03-01T21:55:11.930Z,26.70
2019-03-01T21:58:06.639Z,26.70
2019-03-01T22:00:58.503Z,26.70
2019-03-01T22:03:50.826Z,26.70
2019-03-01T22:06:43.742Z,26.70
2019-03-01T22:09:35.697Z,26.70
2019-03-01T22:12:32.551Z,26.70
2019-03-01T22:15:26.814Z,26.70
2019-03-01T22:18:20.433Z,26.70
2019-03-01T22:21:12.734Z,26.70
2019-03-01T22:24:05.086Z,26.70
2019-03-01T22:26:57.218Z,26.70
2019-03-01T22:29:49.261Z,26.70
2019-03-01T22:32:42.292Z,26.70
2019-03-01T22:35:34.973Z,26.70
2019-03-01T22:38:27.175Z,26.70
2019-03-01T22:41:22.125Z,26.70
2019-03-01T22:44:14.313Z,26.70
2019-03-01T22:47:06.787Z,26.70
2019-03-01T22:49:59.217Z,26.70
2019-03-01T22:52:51.650Z,26.70
2019-03-01T22:55:43.881Z,26.70
2019-03-01T22:58:36.478Z,26.60
2019-03-01T23:01:48.015Z,26.60
2019-03-01T23:04:40.544Z,26.70
2019-03-01T23:07:33.124Z,26.60
2019-03-01T23:10:25.494Z,26.60
2019-03-01T23:13:20.708Z,26.60
2019-03-01T23:16:15.866Z,26.60
2019-03-01T23:19:07.319Z,26.60
2019-03-01T23:21:59.827Z,26.60
2019-03-01T23:24:52.570Z,26.60
2019-03-01T23:27:45.492Z,26.60
2019-03-01T23:30:38.078Z,26.60
2019-03-01T23:33:31.681Z,26.60
2019-03-01T23:36:28.091Z,26.50
2019-03-01T23:39:21.739Z,26.60
2019-03-01T23:42:12.457Z,26.60
2019-03-01T23:45:04.672Z,26.60
2019-03-01T23:47:56.693Z,26.60
2019-03-01T23:50:48.877Z,26.60
2019-03-01T23:53:41.216Z,26.60
2019-03-01T23:56:34.675Z,26.60
2019-03-01T23:59:27.444Z,26.50
